Weather History for Kelso-Longview, WA

Change the Weather History Date:

Saturday, November 16, 2013

  Actual Average Record
Temperature  
Mean Temperature 45 °F -  
Max Temperature 48 °F 49 °F 57 °F (2008)
Min Temperature 42 °F 38 °F 23 °F (2000)
Degree Days  
Heating Degree Days 20    
Moisture  
Dew Point 39 °F    
Average Humidity 79    
Maximum Humidity 87    
Minimum Humidity 71    
Precipitation  
Precipitation 0.34 in - - ()
Sea Level Pressure  
Sea Level Pressure 29.72 in    
Wind  
Wind Speed 6 mph (South)    
Max Wind Speed 12 mph    
Max Gust Speed 16 mph    
Visibility 9 miles    
Events      
Averages and records for this station are not official NWS values.
T = Trace of Precipitation, MM = Missing Value Source: NWS Daily Summary

Daily Weather History Graph

Daily Weather History Graph

Search for Another Location

Airport:

Trip Planner

Search our weather history database for the weather conditions in past years. The results will help you decide how hot, cold, wet, or windy it might be!

Date:

Astronomy

Nov. 16, 2013 Rise Set
Actual Time 7:14 AM PST 4:38 PM PST
Civil Twilight 6:41 AM PST 5:10 PM PST
Nautical Twilight 6:05 AM PST 5:47 PM PST
Astronomical Twilight 5:29 AM PST 6:22 PM PST
Moon 4:18 PM PST (11/16) 6:13 AM PST (11/16)
Length of Visible Light 10h 29m
Length of Day
9h 23m
Waxing Gibbous, 99% of the Moon is Illuminated
Nov 16
Waxing Gibbous
Nov 17
Full
Nov 25
Last Quarter
Dec 2
New
Dec 9
First Quarter

Hourly Weather History & Observations

Time (PST) Temp. Windchill Dew Point Humidity Pressure Visibility Wind Dir Wind Speed Gust Speed Precip Events Conditions
12:15 AM 48.2 °F - 42.8 °F 82% 29.55 in 10.0 mi West 11.5 mph 16.1 mph 0.01 in   Overcast
12:35 AM 48.2 °F - 42.8 °F 82% 29.54 in 10.0 mi West 4.6 mph - 0.02 in   Overcast
12:55 AM 46.4 °F - 42.8 °F 87% 29.55 in 5.0 mi North - - 0.12 in   Overcast
1:15 AM 46.4 °F 42.9 °F 39.2 °F 76% 29.56 in 10.0 mi North 6.9 mph - N/A   Mostly Cloudy
1:35 AM 46.4 °F 42.4 °F 39.2 °F 76% 29.57 in 9.0 mi NW 8.1 mph - 0.03 in   Overcast
1:55 AM 46.4 °F - 39.2 °F 76% 29.57 in 10.0 mi North - - 0.03 in   Mostly Cloudy
2:15 AM 46.4 °F - 37.4 °F 71% 29.57 in 9.0 mi North - - N/A   Overcast
2:35 AM 46.4 °F - 37.4 °F 71% 29.59 in 10.0 mi North - - 0.01 in   Overcast
2:55 AM 44.6 °F - 37.4 °F 76% 29.59 in 10.0 mi North - - 0.01 in   Overcast
3:15 AM 44.6 °F - 39.2 °F 81% 29.59 in 10.0 mi North - - N/A   Overcast
3:35 AM 44.6 °F - 39.2 °F 81% 29.59 in 8.0 mi North - - 0.01 in   Overcast
3:55 AM 44.6 °F - 39.2 °F 81% 29.59 in 10.0 mi North - - 0.02 in   Overcast
4:15 AM 44.6 °F 43.1 °F 39.2 °F 81% 29.59 in 10.0 mi SSE 3.5 mph - N/A   Overcast
4:35 AM 44.6 °F - 39.2 °F 81% 29.60 in 10.0 mi Calm Calm - N/A   Overcast
4:55 AM 44.6 °F 43.1 °F 39.2 °F 81% 29.61 in 10.0 mi NNW 3.5 mph - N/A   Mostly Cloudy
5:15 AM 44.6 °F 40.7 °F 37.4 °F 76% 29.62 in 10.0 mi NNW 6.9 mph - N/A   Overcast
5:35 AM 44.6 °F - 35.6 °F 71% 29.62 in 10.0 mi North - - 0.02 in   Overcast
5:55 AM 42.8 °F - 37.4 °F 81% 29.62 in 9.0 mi North - - 0.04 in   Overcast
6:15 AM 42.8 °F - 37.4 °F 81% 29.63 in 10.0 mi North - - N/A   Mostly Cloudy
6:35 AM 42.8 °F - 37.4 °F 81% 29.63 in 10.0 mi North - - N/A   Mostly Cloudy
6:55 AM 42.8 °F - 37.4 °F 81% 29.64 in 10.0 mi North - - 0.01 in   Mostly Cloudy
7:15 AM 42.8 °F - 37.4 °F 81% 29.65 in 10.0 mi North - - N/A   Overcast
7:35 AM 42.8 °F - 37.4 °F 81% 29.66 in 10.0 mi North - - N/A   Overcast
7:55 AM 42.8 °F - 39.2 °F 87% 29.67 in 10.0 mi North - - N/A   Overcast
8:15 AM 44.6 °F - 37.4 °F 76% 29.68 in 9.0 mi North - - 0.02 in   Overcast
8:35 AM 44.6 °F - 39.2 °F 81% 29.69 in 10.0 mi North - - 0.02 in   Overcast
8:55 AM 44.6 °F - 39.2 °F 81% 29.69 in 10.0 mi North - - 0.02 in   Overcast
9:15 AM 44.6 °F 41.4 °F 39.2 °F 81% 29.69 in 10.0 mi SSE 5.8 mph - N/A   Overcast
9:35 AM 44.6 °F 40.7 °F 39.2 °F 81% 29.70 in 10.0 mi SSE 6.9 mph - N/A   Overcast
9:55 AM 44.6 °F 40.7 °F 39.2 °F 81% 29.71 in 10.0 mi SSE 6.9 mph - N/A   Overcast
10:15 AM 44.6 °F 40.2 °F 39.2 °F 81% 29.72 in 10.0 mi SSE 8.1 mph - N/A   Overcast
10:35 AM 44.6 °F 40.7 °F 39.2 °F 81% 29.72 in 10.0 mi SE 6.9 mph - 0.01 in   Mostly Cloudy
10:55 AM 46.4 °F 43.5 °F 39.2 °F 76% 29.73 in 10.0 mi SE 5.8 mph - 0.01 in   Overcast
11:15 AM 46.4 °F 42.9 °F 39.2 °F 76% 29.73 in 10.0 mi South 6.9 mph - N/A   Overcast
11:35 AM 46.4 °F 45.2 °F 39.2 °F 76% 29.73 in 10.0 mi SW 3.5 mph - N/A   Overcast
11:55 AM 46.4 °F 43.5 °F 37.4 °F 71% 29.73 in 10.0 mi West 5.8 mph - N/A   Overcast
12:15 PM 46.4 °F - 37.4 °F 71% 29.73 in 10.0 mi Calm Calm - N/A   Mostly Cloudy
12:35 PM 46.4 °F 44.3 °F 37.4 °F 71% 29.73 in 10.0 mi SW 4.6 mph - N/A   Overcast
12:55 PM 46.4 °F 44.3 °F 39.2 °F 76% 29.73 in 10.0 mi South 4.6 mph - N/A   Overcast
1:15 PM 46.4 °F 45.2 °F 37.4 °F 71% 29.73 in 10.0 mi SW 3.5 mph - N/A   Overcast
1:35 PM 46.4 °F 44.3 °F 39.2 °F 76% 29.73 in 10.0 mi South 4.6 mph - N/A   Mostly Cloudy
1:55 PM 46.4 °F 45.2 °F 39.2 °F 76% 29.74 in 10.0 mi SSE 3.5 mph - N/A   Overcast
2:15 PM 46.4 °F 42.9 °F 39.2 °F 76% 29.74 in 10.0 mi SE 6.9 mph - N/A   Overcast
2:35 PM 46.4 °F - 41.0 °F 81% 29.74 in 10.0 mi North - - N/A   Overcast
2:55 PM 46.4 °F - 41.0 °F 81% 29.75 in 10.0 mi North - - N/A   Overcast
3:15 PM 46.4 °F 43.5 °F 39.2 °F 76% 29.75 in 9.0 mi West 5.8 mph - N/A   Overcast
3:35 PM 46.4 °F - 39.2 °F 76% 29.76 in 10.0 mi North - - N/A   Overcast
3:55 PM 46.4 °F 45.2 °F 39.2 °F 76% 29.76 in 10.0 mi South 3.5 mph - N/A   Overcast
4:15 PM 46.4 °F 43.5 °F 39.2 °F 76% 29.76 in 10.0 mi SSE 5.8 mph - N/A   Overcast
4:35 PM 46.4 °F - 39.2 °F 76% 29.78 in 7.0 mi Calm Calm - N/A   Overcast
4:55 PM 46.4 °F 43.5 °F 37.4 °F 71% 29.78 in 10.0 mi SSE 5.8 mph - N/A   Mostly Cloudy
5:15 PM 46.4 °F 44.3 °F 37.4 °F 71% 29.78 in 10.0 mi SE 4.6 mph - N/A   Overcast
5:35 PM 46.4 °F 42.9 °F 39.2 °F 76% 29.78 in 10.0 mi SSE 6.9 mph - N/A   Overcast
5:55 PM 46.4 °F 45.2 °F 37.4 °F 71% 29.79 in 10.0 mi South 3.5 mph - N/A   Overcast
6:15 PM 46.4 °F 44.3 °F 37.4 °F 71% 29.79 in 10.0 mi South 4.6 mph - N/A   Overcast
6:35 PM 46.4 °F 44.3 °F 37.4 °F 71% 29.81 in 10.0 mi SSE 4.6 mph - N/A   Overcast
6:55 PM 44.6 °F 42.2 °F 39.2 °F 81% 29.81 in 10.0 mi SE 4.6 mph - N/A   Overcast
7:15 PM 44.6 °F - 39.2 °F 81% 29.81 in 9.0 mi North - - 0.01 in   Overcast
7:35 PM 44.6 °F - 39.2 °F 81% 29.82 in 8.0 mi North - - 0.02 in   Overcast
7:55 PM 44.6 °F - 39.2 °F 81% 29.83 in 5.0 mi North - - 0.03 in   Overcast
8:15 PM 44.6 °F - 39.2 °F 81% 29.84 in 4.0 mi North - - 0.01 in   Overcast
8:35 PM 44.6 °F - 39.2 °F 81% 29.84 in 5.0 mi North - - 0.04 in   Overcast
8:55 PM 44.6 °F - 39.2 °F 81% 29.85 in 8.0 mi North - - 0.04 in   Mostly Cloudy
9:15 PM 44.6 °F 43.1 °F 39.2 °F 81% 29.85 in 9.0 mi SE 3.5 mph - 0.01 in   Overcast
9:35 PM 44.6 °F 42.2 °F 39.2 °F 81% 29.85 in 7.0 mi SE 4.6 mph - 0.01 in   Overcast
9:55 PM 44.6 °F 42.2 °F 39.2 °F 81% 29.86 in 10.0 mi SE 4.6 mph - 0.01 in   Overcast
10:15 PM 42.8 °F 39.3 °F 39.2 °F 87% 29.86 in 10.0 mi SE 5.8 mph - N/A   Overcast
10:35 PM 44.6 °F 43.1 °F 39.2 °F 81% 29.86 in 10.0 mi SE 3.5 mph - N/A   Overcast
10:55 PM 42.8 °F - 39.2 °F 87% 29.86 in 10.0 mi Calm Calm - N/A   Mostly Cloudy
11:15 PM 42.8 °F - 39.2 °F 87% 29.87 in 10.0 mi Calm Calm - N/A   Mostly Cloudy
11:35 PM 42.8 °F - 39.2 °F 87% 29.87 in 10.0 mi North - - N/A   Overcast
11:55 PM 42.8 °F - 39.2 °F 87% 29.88 in 10.0 mi North - - N/A   Overcast